Time;durP1;ratioP1;P1;durP2;ratioP2;P2;SDS_P1;SDS_P2;PMS_P1;PMS_P2;Temp;Humidity;BMP_temperature;BMP_pressure;BME280_temperature;BME280_humidity;BME280_pressure;Samples;Min_cycle;Max_cycle;Signal;HPM_P1;HPM_P2
2023/08/09 00:01:20;;;;;;;2.88;1.90;;;23.50;58.50;;;;;;6128320;28;81520;-59
2023/08/09 00:04:21;;;;;;;2.42;1.65;;;23.50;58.70;;;;;;6128823;28;80972;-59
2023/08/09 00:07:21;;;;;;;3.03;1.85;;;23.50;58.70;;;;;;6129415;28;81681;-63
2023/08/09 00:10:22;;;;;;;3.15;1.58;;;23.50;58.80;;;;;;6130756;28;81897;-60
2023/08/09 00:13:22;;;;;;;1.88;1.52;;;23.50;58.80;;;;;;6130148;28;80803;-60
2023/08/09 00:16:23;;;;;;;3.53;2.00;;;23.50;58.90;;;;;;6130064;28;80558;-61
2023/08/09 00:19:24;;;;;;;1.50;1.40;;;23.50;59.00;;;;;;6130771;28;80179;-60
2023/08/09 00:22:24;;;;;;;2.88;1.45;;;23.50;59.00;;;;;;6129306;28;80774;-61
2023/08/09 00:25:25;;;;;;;2.33;1.58;;;23.50;59.00;;;;;;6128743;28;80001;-63
2023/08/09 00:28:25;;;;;;;1.80;1.50;;;23.50;59.10;;;;;;6127593;28;81404;-64
2023/08/09 00:31:26;;;;;;;4.40;1.50;;;23.50;59.10;;;;;;6139297;28;80531;-63
2023/08/09 00:34:27;;;;;;;2.72;1.40;;;23.50;59.20;;;;;;6131908;28;81018;-62
2023/08/09 00:37:28;;;;;;;1.67;1.58;;;23.40;59.10;;;;;;6120546;28;83353;-64
2023/08/09 00:40:28;;;;;;;1.55;1.25;;;23.40;59.20;;;;;;6119007;28;80781;-63
2023/08/09 00:43:30;;;;;;;1.60;1.30;;;23.40;59.30;;;;;;6106949;28;82855;-63
2023/08/09 00:46:30;;;;;;;2.85;1.42;;;23.40;59.30;;;;;;6121303;28;83189;-63
2023/08/09 00:49:31;;;;;;;2.20;1.60;;;23.40;59.30;;;;;;6123483;28;80501;-63
2023/08/09 00:52:31;;;;;;;1.98;1.55;;;23.40;59.40;;;;;;6129171;28;80397;-53
2023/08/09 00:55:32;;;;;;;1.75;1.40;;;23.40;59.40;;;;;;6126674;28;83580;-48
2023/08/09 00:58:32;;;;;;;1.90;1.60;;;23.40;59.50;;;;;;6127166;28;83262;-48
2023/08/09 01:01:33;;;;;;;1.92;1.35;;;23.40;59.50;;;;;;6126649;28;82662;-49
2023/08/09 01:04:33;;;;;;;2.45;2.03;;;23.40;59.50;;;;;;6126158;28;82286;-49
2023/08/09 01:07:34;;;;;;;1.90;1.48;;;23.40;59.60;;;;;;6126393;28;81637;-49
2023/08/09 01:10:34;;;;;;;2.60;1.60;;;23.40;59.60;;;;;;6126998;28;81033;-64
2023/08/09 01:13:38;;;;;;;2.15;1.40;;;23.40;59.60;;;;;;6127021;28;82039;-63
2023/08/09 01:16:38;;;;;;;1.90;1.50;;;23.40;59.70;;;;;;6127633;28;80712;-64
2023/08/09 01:19:39;;;;;;;3.08;1.70;;;23.40;59.70;;;;;;6127932;28;80464;-65
2023/08/09 01:22:40;;;;;;;2.60;1.60;;;23.40;59.60;;;;;;6151033;28;83528;-64
2023/08/09 01:25:41;;;;;;;1.25;1.15;;;23.40;60.40;;;;;;6128685;28;80753;-67
2023/08/09 01:28:41;;;;;;;2.67;1.42;;;23.40;59.90;;;;;;6124433;28;80436;-66
2023/08/09 01:31:42;;;;;;;2.53;1.50;;;23.40;59.80;;;;;;6122877;28;80370;-66
2023/08/09 01:34:44;;;;;;;1.70;1.27;;;23.40;59.90;;;;;;6113337;28;81036;-66
2023/08/09 01:37:45;;;;;;;1.60;1.50;;;23.40;59.90;;;;;;6126769;28;83287;-66
2023/08/09 01:40:45;;;;;;;1.80;1.30;;;23.40;59.90;;;;;;6125159;28;83211;-65
2023/08/09 01:43:46;;;;;;;1.52;1.40;;;23.50;60.00;;;;;;6135916;28;80417;-66
2023/08/09 01:46:46;;;;;;;2.47;1.33;;;23.40;60.10;;;;;;6135399;28;80328;-51
2023/08/09 01:49:47;;;;;;;1.40;1.30;;;23.40;60.10;;;;;;6125662;28;81145;-51
2023/08/09 01:52:48;;;;;;;2.30;1.25;;;23.40;60.10;;;;;;6120987;28;83525;-54
2023/08/09 01:55:48;;;;;;;3.25;1.70;;;23.50;60.40;;;;;;6124059;28;83870;-50
2023/08/09 01:58:49;;;;;;;1.35;1.25;;;23.40;60.60;;;;;;6119744;28;83641;-55
2023/08/09 02:01:49;;;;;;;2.22;1.85;;;23.40;60.30;;;;;;6118889;28;83797;-55
2023/08/09 02:04:50;;;;;;;3.13;1.80;;;23.50;60.60;;;;;;6107516;28;80615;-63
2023/08/09 02:07:52;;;;;;;1.35;1.20;;;23.40;60.60;;;;;;6113925;28;80842;-59
2023/08/09 02:10:53;;;;;;;1.48;1.38;;;23.50;60.60;;;;;;6114129;28;80958;-59
2023/08/09 02:13:53;;;;;;;2.22;1.40;;;23.50;60.70;;;;;;6101441;28;80431;-61
2023/08/09 02:16:54;;;;;;;3.78;1.50;;;23.50;60.70;;;;;;6115530;28;83436;-61
2023/08/09 02:19:54;;;;;;;2.58;1.67;;;23.50;60.70;;;;;;6133883;28;80445;-61
2023/08/09 02:22:55;;;;;;;1.95;1.42;;;23.50;60.60;;;;;;6110715;28;81405;-61
2023/08/09 02:25:56;;;;;;;2.00;1.33;;;23.40;60.40;;;;;;6121520;28;81795;-61
2023/08/09 02:28:56;;;;;;;2.17;1.50;;;23.40;60.50;;;;;;6101821;28;81552;-60
2023/08/09 02:31:58;;;;;;;2.72;1.77;;;23.40;60.60;;;;;;6128403;28;81161;-62
2023/08/09 02:34:59;;;;;;;2.15;1.80;;;23.40;60.60;;;;;;6144883;28;82238;-61
2023/08/09 02:37:59;;;;;;;1.67;1.23;;;23.40;60.60;;;;;;6122090;28;87854;-61
2023/08/09 02:41:00;;;;;;;1.90;1.30;;;23.40;60.80;;;;;;6140550;28;89254;-65
2023/08/09 02:44:02;;;;;;;2.05;1.60;;;23.40;60.60;;;;;;6114882;28;80508;-59
2023/08/09 02:47:03;;;;;;;1.83;1.30;;;23.40;60.60;;;;;;6122167;28;81957;-62
2023/08/09 02:50:06;;;;;;;1.95;1.38;;;23.40;60.60;;;;;;6139561;28;80172;-60
2023/08/09 02:53:06;;;;;;;2.25;1.65;;;23.40;60.70;;;;;;6137279;28;81999;-60
2023/08/09 02:56:07;;;;;;;1.88;1.65;;;23.40;60.70;;;;;;6133508;28;80553;-62
2023/08/09 02:59:08;;;;;;;1.48;1.30;;;23.40;60.80;;;;;;6140116;28;80806;-62
2023/08/09 03:02:08;;;;;;;1.50;1.20;;;23.40;61.20;;;;;;6136079;28;80284;-62
2023/08/09 03:05:10;;;;;;;3.45;1.33;;;23.40;61.00;;;;;;6131933;28;83536;-61
2023/08/09 03:08:10;;;;;;;2.22;1.45;;;23.40;61.00;;;;;;6113255;28;83264;-61
2023/08/09 03:11:11;;;;;;;2.15;1.42;;;23.40;61.10;;;;;;6127485;28;83451;-62
2023/08/09 03:14:13;;;;;;;2.78;1.65;;;23.40;61.10;;;;;;6116248;28;80551;-61
2023/08/09 03:17:14;;;;;;;1.90;1.70;;;23.40;61.10;;;;;;6110132;28;83325;-62
2023/08/09 03:20:15;;;;;;;1.55;1.45;;;23.40;61.20;;;;;;6115754;28;82584;-63
2023/08/09 03:23:15;;;;;;;1.48;1.30;;;23.40;61.20;;;;;;6110820;28;81803;-62
2023/08/09 03:26:16;;;;;;;3.55;1.85;;;23.40;61.30;;;;;;6122430;28;82998;-62
2023/08/09 03:29:18;;;;;;;3.30;2.00;;;23.40;61.30;;;;;;6117398;28;82429;-62
2023/08/09 03:32:19;;;;;;;1.65;1.30;;;23.40;61.40;;;;;;6118628;28;80398;-61
2023/08/09 03:35:19;;;;;;;1.20;1.10;;;23.40;61.40;;;;;;6105490;28;83095;-62
2023/08/09 03:38:20;;;;;;;1.58;1.48;;;23.40;61.40;;;;;;6118779;28;81183;-66
2023/08/09 03:41:21;;;;;;;2.25;1.48;;;23.40;61.50;;;;;;6111244;28;83782;-66
2023/08/09 03:44:21;;;;;;;1.55;1.33;;;23.40;61.50;;;;;;6135623;28;82151;-65
2023/08/09 03:47:22;;;;;;;1.75;1.40;;;23.40;61.50;;;;;;6127656;28;81864;-65
2023/08/09 03:50:22;;;;;;;1.58;1.30;;;23.40;61.50;;;;;;6128793;28;83781;-64
2023/08/09 03:53:23;;;;;;;2.55;1.30;;;23.40;61.60;;;;;;6134544;28;81170;-64
2023/08/09 03:56:23;;;;;;;2.20;1.70;;;23.40;61.60;;;;;;6141948;28;83512;-66
2023/08/09 03:59:24;;;;;;;1.25;1.15;;;23.40;61.60;;;;;;6129506;28;83253;-64
2023/08/09 04:02:25;;;;;;;2.67;1.45;;;23.40;61.70;;;;;;6132185;28;82115;-64
2023/08/09 04:05:25;;;;;;;1.88;1.60;;;23.40;61.80;;;;;;6151481;28;79842;-65
2023/08/09 04:08:27;;;;;;;1.88;1.17;;;23.40;61.80;;;;;;6127070;28;80963;-65
2023/08/09 04:11:29;;;;;;;1.55;1.45;;;23.40;61.90;;;;;;6127239;28;80507;-62
2023/08/09 04:14:30;;;;;;;2.47;1.70;;;23.40;61.80;;;;;;6119185;28;87891;-56
2023/08/09 04:17:31;;;;;;;1.98;1.50;;;23.40;61.90;;;;;;6125963;28;83170;-58
2023/08/09 04:20:31;;;;;;;1.75;1.38;;;23.40;62.50;;;;;;6107388;28;82082;-58
2023/08/09 04:23:32;;;;;;;2.78;1.65;;;23.40;61.80;;;;;;6105130;28;80927;-58
2023/08/09 04:26:32;;;;;;;4.40;1.60;;;23.40;61.90;;;;;;6116495;28;81457;-58
2023/08/09 04:29:33;;;;;;;2.42;1.40;;;23.40;61.90;;;;;;6105951;28;80352;-58
2023/08/09 04:32:33;;;;;;;2.00;1.52;;;23.40;62.00;;;;;;6117598;28;81346;-57
2023/08/09 04:35:35;;;;;;;2.60;1.83;;;23.40;62.10;;;;;;6115009;28;80494;-55
2023/08/09 04:38:36;;;;;;;1.88;1.67;;;23.40;62.20;;;;;;6128269;28;82303;-55
2023/08/09 04:41:36;;;;;;;4.43;1.50;;;23.40;62.10;;;;;;6148614;28;82580;-56
2023/08/09 04:44:37;;;;;;;1.65;1.55;;;23.40;62.20;;;;;;6128569;28;80430;-54
2023/08/09 04:47:37;;;;;;;1.38;1.25;;;23.40;62.20;;;;;;6118243;28;81206;-56
2023/08/09 04:50:37;;;;;;;3.25;1.70;;;23.40;62.30;;;;;;6106057;28;81240;-57
2023/08/09 04:53:38;;;;;;;2.47;1.83;;;23.40;62.40;;;;;;6104664;28;80268;-56
2023/08/09 04:56:39;;;;;;;1.80;1.60;;;23.40;62.40;;;;;;6115011;28;81029;-56
2023/08/09 04:59:39;;;;;;;1.73;1.25;;;23.40;62.40;;;;;;6120035;28;80767;-57
2023/08/09 05:02:40;;;;;;;1.67;1.25;;;23.40;62.40;;;;;;6110040;28;80652;-56
2023/08/09 05:05:40;;;;;;;1.63;1.52;;;23.40;62.40;;;;;;6126145;28;80991;-56
2023/08/09 05:08:41;;;;;;;2.67;1.58;;;23.40;62.40;;;;;;6118265;28;80918;-62
2023/08/09 05:11:41;;;;;;;2.75;1.33;;;23.40;62.50;;;;;;6113133;28;82039;-61
2023/08/09 05:14:41;;;;;;;2.65;1.80;;;23.40;62.40;;;;;;6114157;28;80908;-62
2023/08/09 05:17:42;;;;;;;3.83;1.80;;;23.40;62.40;;;;;;6122590;28;80559;-62
2023/08/09 05:20:42;;;;;;;3.85;2.03;;;23.40;62.40;;;;;;6117770;28;81848;-65
2023/08/09 05:23:43;;;;;;;2.90;1.90;;;23.40;62.70;;;;;;6106227;28;80575;-64
2023/08/09 05:26:44;;;;;;;2.22;1.90;;;23.40;62.70;;;;;;6109324;28;81959;-55
2023/08/09 05:29:44;;;;;;;8.30;1.80;;;23.40;62.50;;;;;;6105512;28;80339;-50
2023/08/09 05:32:45;;;;;;;3.03;1.92;;;23.50;62.70;;;;;;6109514;28;82010;-54
2023/08/09 05:35:45;;;;;;;1.75;1.60;;;23.40;62.70;;;;;;6111961;28;80792;-55
2023/08/09 05:38:46;;;;;;;5.47;1.75;;;23.50;62.90;;;;;;6120245;28;82731;-51
2023/08/09 05:41:46;;;;;;;3.20;1.67;;;23.50;62.90;;;;;;6120311;28;81203;-51
2023/08/09 05:44:47;;;;;;;9.73;1.77;;;23.50;62.90;;;;;;6105093;28;81744;-58
2023/08/09 05:47:47;;;;;;;2.10;1.40;;;23.50;62.70;;;;;;6124897;28;83723;-50
2023/08/09 05:50:48;;;;;;;4.88;2.00;;;23.50;62.80;;;;;;6119868;28;81140;-48
2023/08/09 05:53:48;;;;;;;9.98;2.08;;;23.50;62.60;;;;;;6126478;28;80306;-55
2023/08/09 05:56:50;;;;;;;9.95;1.83;;;23.50;62.50;;;;;;6125839;28;81278;-49
2023/08/09 05:59:51;;;;;;;8.63;2.17;;;23.50;62.60;;;;;;6130856;28;80482;-49
2023/08/09 06:02:52;;;;;;;3.67;1.67;;;23.50;62.50;;;;;;6113619;28;80762;-46
2023/08/09 06:05:53;;;;;;;7.25;2.28;;;23.50;62.50;;;;;;6125754;28;81251;-51
2023/08/09 06:08:53;;;;;;;3.53;1.65;;;23.50;62.90;;;;;;6126205;28;80549;-53
2023/08/09 06:11:54;;;;;;;4.60;1.80;;;23.50;63.10;;;;;;6118174;28;83105;-51
2023/08/09 06:14:54;;;;;;;7.82;1.98;;;23.50;63.30;;;;;;6126616;28;81047;-52
2023/08/09 06:17:55;;;;;;;2.85;1.58;;;23.50;63.00;;;;;;6126077;28;81030;-55
2023/08/09 06:20:55;;;;;;;6.03;2.13;;;23.50;63.10;;;;;;6125605;28;80413;-51
2023/08/09 06:23:56;;;;;;;4.45;1.70;;;23.50;63.00;;;;;;6123721;28;80478;-49
2023/08/09 06:26:57;;;;;;;5.28;1.30;;;23.50;62.90;;;;;;6117758;28;80693;-55
2023/08/09 06:29:57;;;;;;;3.08;1.48;;;23.60;63.30;;;;;;6114959;28;80873;-51
2023/08/09 06:32:58;;;;;;;4.00;1.60;;;23.60;63.40;;;;;;6122671;28;80513;-54
2023/08/09 06:35:58;;;;;;;11.52;1.90;;;23.60;63.10;;;;;;6120830;28;81680;-53
2023/08/09 06:38:59;;;;;;;2.53;1.60;;;23.60;63.10;;;;;;6132121;28;81666;-51
2023/08/09 06:41:59;;;;;;;2.45;1.60;;;23.60;63.40;;;;;;6131187;28;80946;-51
2023/08/09 06:45:02;;;;;;;2.25;1.70;;;23.60;63.40;;;;;;6129511;28;81578;-57
2023/08/09 06:48:03;;;;;;;6.90;2.42;;;23.60;63.30;;;;;;6130749;28;81622;-48
2023/08/09 06:51:03;;;;;;;3.92;2.53;;;23.70;63.60;;;;;;6130207;28;80616;-53
2023/08/09 06:54:04;;;;;;;5.28;2.72;;;23.60;64.60;;;;;;6119823;28;80116;-57
2023/08/09 06:57:07;;;;;;;8.55;3.33;;;23.60;64.30;;;;;;6125928;28;80514;-55
2023/08/09 07:00:15;;;;;;;7.40;3.38;;;23.70;64.90;;;;;;6124176;28;80770;-51
2023/08/09 07:03:16;;;;;;;13.90;3.47;;;23.70;64.80;;;;;;6122851;28;80462;-50
2023/08/09 07:06:16;;;;;;;7.38;3.10;;;23.80;65.00;;;;;;6136076;28;82179;-53
2023/08/09 07:09:18;;;;;;;8.00;3.50;;;23.80;65.20;;;;;;6124968;28;80316;-52
2023/08/09 07:12:18;;;;;;;14.48;3.70;;;23.80;64.80;;;;;;6118800;28;80727;-52
2023/08/09 07:15:19;;;;;;;6.35;3.17;;;23.80;64.40;;;;;;6114151;28;81171;-55
2023/08/09 07:18:19;;;;;;;2.72;1.98;;;23.70;63.20;;;;;;6127765;28;81317;-66
2023/08/09 07:21:20;;;;;;;3.42;1.80;;;23.10;60.80;;;;;;6129608;28;81098;-64
2023/08/09 07:24:20;;;;;;;3.45;1.90;;;22.80;61.50;;;;;;6129984;28;80416;-68
2023/08/09 07:27:21;;;;;;;2.17;1.90;;;22.60;62.00;;;;;;6128747;28;81026;-69
2023/08/09 07:30:22;;;;;;;1.75;1.42;;;22.60;64.10;;;;;;6129763;28;81017;-66
2023/08/09 07:33:22;;;;;;;3.85;2.03;;;22.60;64.10;;;;;;6120127;28;83116;-65
2023/08/09 07:36:22;;;;;;;3.25;1.67;;;22.60;64.30;;;;;;6121309;28;80529;-68
2023/08/09 07:39:25;;;;;;;8.65;2.08;;;22.50;63.30;;;;;;6129744;28;80302;-65
2023/08/09 07:42:25;;;;;;;1.88;1.48;;;22.50;63.30;;;;;;6129943;28;80437;-68
2023/08/09 07:45:26;;;;;;;3.00;1.92;;;22.40;62.50;;;;;;6115945;28;80562;-65
2023/08/09 07:48:26;;;;;;;5.20;2.00;;;22.30;62.60;;;;;;6120999;28;81852;-67
2023/08/09 07:51:27;;;;;;;3.05;2.13;;;22.30;63.30;;;;;;6122137;28;80762;-65
2023/08/09 07:54:27;;;;;;;4.25;2.13;;;22.40;62.90;;;;;;6121904;28;84430;-65
2023/08/09 07:57:28;;;;;;;2.53;1.85;;;22.50;62.10;;;;;;6122485;28;81149;-64
2023/08/09 08:00:28;;;;;;;44.42;21.88;;;22.50;61.60;;;;;;6116143;28;84411;-66
2023/08/09 08:03:29;;;;;;;75.40;39.92;;;22.50;62.00;;;;;;6114089;28;83393;-65
2023/08/09 08:06:29;;;;;;;65.78;32.22;;;22.60;62.40;;;;;;6111381;28;88047;-69
2023/08/09 08:09:32;;;;;;;184.35;98.65;;;22.60;61.30;;;;;;6109589;28;83693;-68
2023/08/09 08:12:33;;;;;;;163.20;83.50;;;22.60;61.80;;;;;;6126559;28;84255;-68
2023/08/09 08:15:33;;;;;;;240.50;121.85;;;22.70;60.30;;;;;;6123079;28;86580;-59
2023/08/09 08:18:34;;;;;;;284.65;138.30;;;22.80;60.90;;;;;;6123860;28;85547;-66
2023/08/09 08:21:34;;;;;;;96.93;44.45;;;23.00;60.50;;;;;;6133002;28;86439;-70
2023/08/09 08:24:35;;;;;;;24.35;10.40;;;22.90;58.90;;;;;;6141732;28;85840;-68
2023/08/09 08:27:35;;;;;;;9.52;3.63;;;22.80;59.30;;;;;;6143269;28;84074;-65
2023/08/09 08:30:36;;;;;;;4.90;3.30;;;22.70;59.10;;;;;;6137725;28;82784;-63
2023/08/09 08:33:37;;;;;;;7.10;3.78;;;22.70;59.80;;;;;;6120580;28;81889;-66
2023/08/09 08:36:38;;;;;;;5.03;2.38;;;22.80;60.10;;;;;;6132423;28;80723;-67
2023/08/09 08:39:38;;;;;;;3.80;2.05;;;22.90;60.20;;;;;;6146621;28;81395;-67
2023/08/09 08:42:41;;;;;;;10.20;1.70;;;22.80;59.50;;;;;;6143111;28;80343;-68
2023/08/09 08:45:41;;;;;;;4.85;1.65;;;22.80;59.50;;;;;;6125081;28;80785;-67
2023/08/09 08:48:42;;;;;;;4.32;2.00;;;22.90;58.70;;;;;;6129534;28;80896;-63
2023/08/09 08:51:42;;;;;;;3.97;1.80;;;22.90;58.80;;;;;;6160858;28;80872;-64
2023/08/09 08:54:43;;;;;;;3.88;1.50;;;23.00;59.30;;;;;;6145785;28;81730;-67
2023/08/09 08:57:46;;;;;;;3.92;2.20;;;23.10;59.10;;;;;;6133881;28;82054;-66
2023/08/09 09:00:46;;;;;;;2.65;1.92;;;23.10;59.30;;;;;;6135900;28;80567;-67
2023/08/09 09:03:47;;;;;;;2.25;1.83;;;23.10;58.80;;;;;;6141574;28;80950;-66
2023/08/09 09:06:47;;;;;;;2.40;1.65;;;23.00;58.10;;;;;;6145792;28;81801;-65
2023/08/09 09:09:48;;;;;;;5.90;2.03;;;22.90;58.00;;;;;;6124282;28;81779;-62
2023/08/09 09:12:49;;;;;;;3.55;1.90;;;22.90;58.70;;;;;;6115260;28;81555;-63
2023/08/09 09:15:50;;;;;;;3.13;1.70;;;23.00;59.00;;;;;;6111424;28;80410;-62
2023/08/09 09:18:51;;;;;;;4.40;1.92;;;23.10;58.80;;;;;;6124659;28;81296;-65
2023/08/09 09:21:51;;;;;;;3.92;1.80;;;23.20;58.50;;;;;;6122458;28;81132;-64
2023/08/09 09:24:52;;;;;;;3.45;2.15;;;23.30;57.40;;;;;;6136453;28;81438;-64
2023/08/09 09:27:52;;;;;;;4.45;1.98;;;23.30;56.20;;;;;;6131477;28;81410;-51
2023/08/09 09:30:53;;;;;;;9.75;2.40;;;23.30;55.60;;;;;;6145618;28;81207;-55
2023/08/09 09:33:53;;;;;;;5.50;2.30;;;23.40;56.10;;;;;;6143213;28;80977;-54
2023/08/09 09:36:55;;;;;;;6.97;1.80;;;23.50;56.40;;;;;;6142210;28;80806;-53
2023/08/09 09:39:56;;;;;;;9.02;3.08;;;23.50;56.70;;;;;;6142268;28;82376;-52
2023/08/09 09:42:56;;;;;;;2.47;1.65;;;23.50;55.20;;;;;;6126218;28;80615;-59
2023/08/09 09:45:57;;;;;;;6.25;2.35;;;23.60;55.60;;;;;;6118429;28;80564;-58
2023/08/09 09:48:57;;;;;;;5.50;2.00;;;23.60;55.40;;;;;;6125617;28;81125;-56
2023/08/09 09:51:58;;;;;;;5.75;2.40;;;23.60;55.00;;;;;;6133349;28;80507;-54
2023/08/09 09:54:59;;;;;;;4.35;2.22;;;23.70;54.20;;;;;;6125583;28;84286;-55
2023/08/09 09:57:59;;;;;;;4.07;2.50;;;23.60;54.40;;;;;;6121517;28;80406;-56
2023/08/09 10:01:01;;;;;;;3.42;2.00;;;23.70;54.60;;;;;;6113673;28;80221;-55
2023/08/09 10:04:06;;;;;;;3.80;1.92;;;23.70;53.90;;;;;;6120891;28;81225;-70
2023/08/09 10:07:07;;;;;;;6.15;1.90;;;23.60;53.70;;;;;;6114470;28;82247;-73
2023/08/09 10:10:08;;;;;;;5.07;2.35;;;23.70;54.00;;;;;;6125665;28;84176;-67
2023/08/09 10:13:09;;;;;;;2.97;1.98;;;23.70;53.50;;;;;;6134062;28;80653;-69
2023/08/09 10:16:13;;;;;;;2.40;1.98;;;23.70;53.50;;;;;;6122125;28;81302;-70
2023/08/09 10:19:14;;;;;;;3.42;2.03;;;23.80;53.40;;;;;;6121867;28;80824;-70
2023/08/09 10:22:14;;;;;;;4.25;1.77;;;23.90;53.10;;;;;;6126225;28;83070;-57
2023/08/09 10:25:15;;;;;;;3.03;1.63;;;24.10;53.40;;;;;;6125646;28;81031;-56
2023/08/09 10:28:15;;;;;;;4.93;2.22;;;24.10;52.60;;;;;;6112228;28;84605;-55
2023/08/09 10:31:16;;;;;;;5.07;1.83;;;24.00;53.10;;;;;;6119541;28;80689;-51
2023/08/09 10:34:16;;;;;;;3.50;2.00;;;23.90;52.40;;;;;;6114266;28;80490;-55
2023/08/09 10:37:17;;;;;;;4.43;2.28;;;23.80;53.20;;;;;;6123531;28;80696;-51
2023/08/09 10:40:19;;;;;;;3.92;1.88;;;23.80;54.00;;;;;;6120516;28;81348;-52
2023/08/09 10:43:22;;;;;;;2.95;1.88;;;23.80;53.80;;;;;;6119816;28;80454;-52
2023/08/09 10:46:23;;;;;;;2.58;1.67;;;23.70;54.30;;;;;;6109560;28;80953;-53
2023/08/09 10:49:23;;;;;;;3.47;2.15;;;23.60;54.10;;;;;;6106155;28;83415;-53
2023/08/09 10:52:24;;;;;;;4.18;2.00;;;23.60;53.30;;;;;;6133162;28;80909;-53
2023/08/09 10:55:26;;;;;;;5.47;1.95;;;23.60;53.70;;;;;;6120424;28;83291;-52
2023/08/09 10:58:26;;;;;;;1.85;1.42;;;23.50;53.50;;;;;;6111904;28;80602;-51
2023/08/09 11:01:27;;;;;;;7.72;1.63;;;23.50;52.90;;;;;;6109351;28;80655;-53
2023/08/09 11:04:27;;;;;;;3.85;1.60;;;23.60;53.30;;;;;;6090436;28;82575;-49
2023/08/09 11:07:28;;;;;;;2.38;1.70;;;23.60;53.70;;;;;;6114111;28;80722;-56
2023/08/09 11:10:28;;;;;;;2.35;1.75;;;23.60;54.10;;;;;;6121143;28;81444;-54
2023/08/09 11:13:31;;;;;;;2.42;1.70;;;23.60;54.10;;;;;;6113186;28;82463;-54
2023/08/09 11:16:31;;;;;;;4.00;1.75;;;23.60;54.20;;;;;;6110370;28;80802;-62
2023/08/09 11:19:32;;;;;;;3.90;1.67;;;23.60;53.60;;;;;;6131547;28;83307;-63
2023/08/09 11:22:33;;;;;;;2.70;1.70;;;23.60;54.00;;;;;;6117768;28;85303;-63
2023/08/09 11:25:33;;;;;;;2.72;1.88;;;23.70;54.70;;;;;;6138411;28;84869;-64
2023/08/09 11:28:35;;;;;;;2.42;1.83;;;23.70;54.90;;;;;;6118664;28;82969;-60
2023/08/09 11:31:36;;;;;;;2.15;1.90;;;23.70;54.00;;;;;;6115495;28;80516;-62
2023/08/09 11:34:36;;;;;;;2.30;1.70;;;23.50;54.80;;;;;;6107980;28;80823;-60
2023/08/09 11:37:37;;;;;;;1.80;1.63;;;23.40;56.40;;;;;;6141842;28;80470;-58
2023/08/09 11:40:37;;;;;;;2.70;1.30;;;23.20;57.10;;;;;;6102850;28;83998;-61
2023/08/09 11:43:38;;;;;;;4.50;2.00;;;23.00;59.70;;;;;;6136240;28;80456;-62
2023/08/09 11:46:41;;;;;;;5.68;2.28;;;22.90;60.70;;;;;;6108468;28;85172;-62
2023/08/09 11:49:43;;;;;;;4.00;1.88;;;22.80;62.40;;;;;;6112380;28;80311;-62
2023/08/09 11:52:43;;;;;;;5.03;2.30;;;22.80;62.00;;;;;;6107214;28;81919;-63
2023/08/09 11:55:44;;;;;;;3.92;2.03;;;22.80;63.50;;;;;;6136610;28;82694;-63
2023/08/09 11:58:45;;;;;;;5.40;2.00;;;22.90;63.80;;;;;;6122697;28;82731;-63
2023/08/09 12:01:45;;;;;;;5.85;2.67;;;22.90;64.60;;;;;;6106194;28;82934;-63
2023/08/09 12:04:46;;;;;;;5.68;2.08;;;22.80;65.30;;;;;;6113597;28;81111;-62
2023/08/09 12:07:46;;;;;;;3.72;2.28;;;22.90;65.50;;;;;;6119450;28;81023;-71
2023/08/09 12:10:47;;;;;;;5.88;2.85;;;22.90;66.10;;;;;;6105551;28;82961;-63
2023/08/09 12:13:47;;;;;;;2.90;2.28;;;23.10;66.00;;;;;;6146686;28;81441;-65
2023/08/09 12:16:48;;;;;;;5.18;2.30;;;23.00;65.70;;;;;;6115300;28;81595;-64
2023/08/09 12:19:48;;;;;;;10.55;2.53;;;23.10;64.10;;;;;;6141435;28;80319;-62
2023/08/09 12:22:49;;;;;;;2.38;1.92;;;23.20;63.80;;;;;;6079142;28;82872;-63
2023/08/09 12:25:49;;;;;;;8.02;2.25;;;23.20;62.90;;;;;;6109565;28;83588;-65
2023/08/09 12:28:50;;;;;;;3.55;2.10;;;23.20;62.80;;;;;;6142725;28;80546;-74
2023/08/09 12:31:50;;;;;;;6.30;2.22;;;23.20;63.00;;;;;;6120772;28;80874;-56
2023/08/09 12:34:51;;;;;;;3.63;2.22;;;23.20;63.10;;;;;;6118254;28;80414;-51
2023/08/09 12:37:52;;;;;;;6.22;2.17;;;23.30;63.20;;;;;;6119181;28;80501;-54
2023/08/09 12:40:52;;;;;;;7.90;2.03;;;23.30;63.20;;;;;;6127672;28;84413;-53
2023/08/09 12:43:53;;;;;;;7.75;2.20;;;23.50;63.00;;;;;;6118013;28;80720;-55
2023/08/09 12:46:54;;;;;;;3.28;2.17;;;23.30;62.80;;;;;;6128726;28;81683;-57
2023/08/09 12:49:55;;;;;;;2.47;2.00;;;23.40;62.80;;;;;;6126151;28;80904;-54
2023/08/09 12:52:55;;;;;;;3.70;2.78;;;23.30;62.80;;;;;;6123019;28;83034;-54
2023/08/09 12:55:56;;;;;;;4.18;2.30;;;23.30;63.20;;;;;;6120585;28;81327;-56
2023/08/09 12:58:56;;;;;;;4.40;2.60;;;23.30;63.90;;;;;;6119796;28;81447;-57
2023/08/09 13:01:57;;;;;;;6.80;2.55;;;23.30;63.80;;;;;;6101192;28;82426;-58
2023/08/09 13:04:59;;;;;;;8.18;2.47;;;23.20;64.20;;;;;;6105359;28;81137;-57
2023/08/09 13:08:00;;;;;;;5.35;2.53;;;23.30;64.30;;;;;;6131672;28;86034;-60
2023/08/09 13:11:00;;;;;;;6.30;2.00;;;23.30;64.20;;;;;;6131488;28;81904;-51
2023/08/09 13:14:01;;;;;;;3.95;2.08;;;23.20;64.30;;;;;;6127071;28;81394;-55
2023/08/09 13:17:01;;;;;;;6.13;3.40;;;23.00;64.80;;;;;;6129663;28;81008;-52
2023/08/09 13:20:02;;;;;;;7.72;2.38;;;23.00;64.90;;;;;;6123588;28;81813;-56
2023/08/09 13:23:03;;;;;;;48.38;25.35;;;22.80;65.00;;;;;;6132557;28;81534;-57
2023/08/09 13:26:03;;;;;;;161.30;82.70;;;22.80;65.60;;;;;;6127153;28;84351;-53
2023/08/09 13:29:04;;;;;;;214.80;108.80;;;22.80;66.10;;;;;;6125906;28;84382;-54
2023/08/09 13:32:04;;;;;;;209.98;110.95;;;23.00;66.50;;;;;;6123047;28;86442;-53
2023/08/09 13:35:05;;;;;;;231.15;114.07;;;23.00;66.00;;;;;;6121118;28;87629;-50
2023/08/09 13:38:05;;;;;;;202.50;99.40;;;23.00;66.10;;;;;;6127741;28;86519;-50
2023/08/09 13:41:06;;;;;;;121.80;62.15;;;22.90;66.60;;;;;;6129376;28;85843;-54
2023/08/09 13:44:07;;;;;;;168.32;78.07;;;22.80;67.00;;;;;;6115384;28;86147;-61
2023/08/09 13:47:07;;;;;;;115.57;51.97;;;22.60;67.40;;;;;;6123434;28;85185;-58
2023/08/09 13:50:10;;;;;;;61.30;26.92;;;22.70;67.80;;;;;;6102353;28;84439;-60
2023/08/09 13:53:11;;;;;;;32.15;17.30;;;22.70;68.40;;;;;;6110911;28;84969;-59
2023/08/09 13:56:11;;;;;;;21.73;11.35;;;22.80;67.80;;;;;;6124833;28;83251;-59
2023/08/09 13:59:12;;;;;;;11.93;5.00;;;22.90;67.50;;;;;;6111757;28;82722;-55
2023/08/09 14:02:13;;;;;;;10.25;3.75;;;22.80;67.60;;;;;;6109389;28;83234;-58
2023/08/09 14:05:14;;;;;;;6.57;2.17;;;22.70;67.80;;;;;;6143441;28;82134;-56
2023/08/09 14:08:14;;;;;;;3.72;2.10;;;22.60;66.80;;;;;;6147098;28;80453;-59
2023/08/09 14:11:15;;;;;;;4.13;2.20;;;22.50;66.50;;;;;;6136889;28;82642;-50
2023/08/09 14:14:15;;;;;;;2.90;1.77;;;22.40;66.40;;;;;;6127778;28;80979;-58
2023/08/09 14:17:16;;;;;;;2.63;1.95;;;22.40;66.00;;;;;;6128567;28;81153;-58
2023/08/09 14:20:17;;;;;;;5.50;2.20;;;22.40;66.30;;;;;;6121765;28;80930;-53
2023/08/09 14:23:17;;;;;;;2.30;1.30;;;22.40;66.30;;;;;;6128035;28;80754;-58
2023/08/09 14:26:18;;;;;;;3.75;1.55;;;22.30;65.70;;;;;;6120337;28;81118;-57
2023/08/09 14:29:18;;;;;;;4.40;1.98;;;22.20;65.80;;;;;;6123871;28;80835;-56
2023/08/09 14:32:21;;;;;;;5.50;2.10;;;22.20;65.90;;;;;;6123154;28;81200;-59
2023/08/09 14:35:23;;;;;;;4.60;1.98;;;22.20;66.50;;;;;;6121051;28;83690;-52
2023/08/09 14:38:23;;;;;;;4.20;1.95;;;22.20;67.20;;;;;;6122729;28;80694;-59
2023/08/09 14:41:24;;;;;;;4.15;2.13;;;22.10;67.20;;;;;;6104812;28;80248;-53
2023/08/09 14:44:25;;;;;;;2.63;1.88;;;22.00;68.50;;;;;;6109643;28;83634;-56
2023/08/09 14:47:25;;;;;;;3.17;2.17;;;21.80;70.80;;;;;;6116448;28;81615;-56
2023/08/09 14:50:26;;;;;;;2.50;1.70;;;21.70;71.30;;;;;;6110733;28;82372;-57
2023/08/09 14:53:26;;;;;;;4.03;2.22;;;21.80;71.50;;;;;;6117628;28;81369;-53
2023/08/09 14:56:27;;;;;;;4.60;2.22;;;21.80;71.20;;;;;;6137422;28;81537;-64
2023/08/09 14:59:28;;;;;;;3.47;2.08;;;21.80;71.10;;;;;;6130852;28;82382;-62
2023/08/09 15:02:29;;;;;;;3.58;2.42;;;21.90;70.90;;;;;;6127428;28;81921;-64
2023/08/09 15:05:30;;;;;;;4.85;2.10;;;22.00;71.40;;;;;;6136458;28;87224;-63
2023/08/09 15:08:31;;;;;;;4.15;2.40;;;21.90;70.70;;;;;;6133617;28;81961;-64
2023/08/09 15:11:32;;;;;;;3.00;1.98;;;21.90;71.30;;;;;;6137763;28;82251;-64
2023/08/09 15:14:32;;;;;;;2.60;1.80;;;22.00;71.50;;;;;;6132468;28;81719;-68
2023/08/09 15:17:33;;;;;;;4.13;2.03;;;22.00;71.10;;;;;;6134352;28;81690;-64
2023/08/09 15:20:33;;;;;;;3.58;2.10;;;22.00;71.10;;;;;;6133814;28;81580;-66
2023/08/09 15:23:34;;;;;;;3.88;2.30;;;22.00;71.10;;;;;;6122963;28;82321;-64
2023/08/09 15:26:34;;;;;;;2.28;1.80;;;22.00;70.50;;;;;;6132034;28;81799;-70
2023/08/09 15:29:35;;;;;;;5.75;2.28;;;22.20;70.30;;;;;;6130871;28;81315;-64
2023/08/09 15:32:35;;;;;;;4.15;2.40;;;22.40;69.70;;;;;;6127366;28;83510;-65
2023/08/09 15:35:36;;;;;;;4.55;2.38;;;22.40;69.30;;;;;;6129809;28;81016;-70
2023/08/09 15:38:37;;;;;;;4.05;2.25;;;22.30;68.80;;;;;;6130816;28;81328;-63